Time;durP1;ratioP1;P1;durP2;ratioP2;P2;SDS_P1;SDS_P2;PMS_P1;PMS_P2;Temp;Humidity;BMP_temperature;BMP_pressure;BME280_temperature;BME280_humidity;BME280_pressure;Samples;Min_cycle;Max_cycle;Signal;HPM_P1;HPM_P2
2022/04/26 03:36:28;;;;;;;;;;;8.10;81.80;;;;;;2088265;28;19924;-91
2022/04/26 03:37:29;;;;;;;;;;;8.10;82.00;;;;;;2085078;28;20316;-89
2022/04/26 03:38:30;;;;;;;;;;;8.20;82.10;;;;;;2089965;28;19913;-91
2022/04/26 03:39:32;;;;;;;;;;;8.20;82.10;;;;;;2090545;28;19924;-91
2022/04/26 03:40:32;;;;;;;;;;;8.10;82.10;;;;;;2098245;28;19912;-92
2022/04/26 03:41:33;;;;;;;;;;;8.10;82.20;;;;;;2086410;28;19924;-91
2022/04/26 03:42:34;;;;;;;;;;;8.10;82.70;;;;;;2082121;28;20250;-91
2022/04/26 03:43:35;;;;;;;;;;;8.10;82.30;;;;;;2090436;28;19979;-91
2022/04/26 03:44:35;;;;;;;;;;;8.10;82.20;;;;;;2098757;28;20392;-91
2022/04/26 03:45:36;;;;;;;;;;;8.10;82.20;;;;;;2089898;28;19928;-90
2022/04/26 03:46:36;;;;;;;;;;;8.10;82.30;;;;;;2098690;28;20352;-91
2022/04/26 03:47:37;;;;;;;;;;;8.20;82.20;;;;;;2090148;28;19913;-91
2022/04/26 03:48:37;;;;;;;;;;;8.20;82.20;;;;;;2087042;28;19939;-91
2022/04/26 03:49:38;;;;;;;;;;;8.20;82.20;;;;;;2074805;28;19918;-91
2022/04/26 03:50:39;;;;;;;;;;;8.20;82.20;;;;;;2081886;28;19984;-91
2022/04/26 03:51:39;;;;;;;;;;;8.20;82.20;;;;;;2093234;28;19912;-91
2022/04/26 03:52:40;;;;;;;;;;;8.20;82.20;;;;;;2099082;28;19932;-91
2022/04/26 03:53:40;;;;;;;;;;;8.20;82.20;;;;;;2098886;28;20011;-91
2022/04/26 03:54:41;;;;;;;;;;;8.20;82.30;;;;;;2089746;28;20444;-91
2022/04/26 03:55:42;;;;;;;;;;;8.20;82.30;;;;;;2082185;28;19924;-91
2022/04/26 03:56:42;;;;;;;;;;;8.20;82.20;;;;;;2098771;28;19917;-91
2022/04/26 03:57:43;;;;;;;;;;;8.20;82.30;;;;;;2098966;28;20010;-91
2022/04/26 03:58:43;;;;;;;;;;;8.20;82.40;;;;;;2092900;28;20552;-91
2022/04/26 03:59:44;;;;;;;;;;;8.20;82.20;;;;;;2090464;28;20027;-90
2022/04/26 04:00:44;;;;;;;;;;;8.20;82.20;;;;;;2100812;28;19923;-90
2022/04/26 04:01:46;;;;;;;;;;;8.20;82.20;;;;;;2107394;28;20453;-91
2022/04/26 04:02:46;;;;;;;;;;;8.20;82.20;;;;;;2102850;28;19924;-91
2022/04/26 04:03:47;;;;;;;;;;;8.20;82.20;;;;;;2099921;28;19913;-91
2022/04/26 04:04:47;;;;;;;;;;;8.30;82.20;;;;;;2098334;28;19923;-90
2022/04/26 04:05:48;;;;;;;;;;;8.20;82.20;;;;;;2107763;28;19927;-91
2022/04/26 04:06:48;;;;;;;;;;;8.20;82.30;;;;;;2091811;28;19932;-90
2022/04/26 04:07:49;;;;;;;;;;;8.20;82.30;;;;;;2093222;28;20429;-91
2022/04/26 04:08:50;;;;;;;;;;;8.20;82.30;;;;;;2108418;28;19935;-92
2022/04/26 04:09:52;;;;;;;;;;;8.20;82.40;;;;;;2109590;28;19987;-91
2022/04/26 04:10:52;;;;;;;;;;;8.20;82.60;;;;;;2099322;28;19925;-91
2022/04/26 04:11:53;;;;;;;;;;;8.20;82.70;;;;;;2096321;28;20313;-91
2022/04/26 04:12:53;;;;;;;;;;;8.20;82.80;;;;;;2105207;28;20380;-93
2022/04/26 04:13:54;;;;;;;;;;;8.20;82.70;;;;;;2097446;28;19909;-91
2022/04/26 04:14:54;;;;;;;;;;;8.20;83.20;;;;;;2105114;28;19915;-91
2022/04/26 04:15:56;;;;;;;;;;;8.20;82.90;;;;;;2094997;28;19920;-92
2022/04/26 04:16:57;;;;;;;;;;;8.20;83.00;;;;;;2101644;28;19919;-91
2022/04/26 04:17:58;;;;;;;;;;;8.20;83.40;;;;;;2101159;28;19979;-91
2022/04/26 04:20:18;;;;;;;;;;;8.20;83.10;;;;;;2086257;28;19917;-91
2022/04/26 04:21:19;;;;;;;;;;;8.20;83.00;;;;;;2092306;28;19966;-91
2022/04/26 04:22:20;;;;;;;;;;;8.20;82.90;;;;;;2101863;28;19917;-92
2022/04/26 04:23:21;;;;;;;;;;;8.20;82.90;;;;;;2099240;28;19920;-92
2022/04/26 04:24:21;;;;;;;;;;;8.20;83.10;;;;;;2094694;28;19912;-90
2022/04/26 04:25:22;;;;;;;;;;;8.20;83.00;;;;;;2093433;28;19913;-91
2022/04/26 04:26:23;;;;;;;;;;;8.20;83.10;;;;;;2101756;28;19924;-91
2022/04/26 04:27:23;;;;;;;;;;;8.20;83.00;;;;;;2093713;28;19909;-90
2022/04/26 04:28:24;;;;;;;;;;;8.20;83.10;;;;;;2093298;28;19913;-91
2022/04/26 04:29:25;;;;;;;;;;;8.20;83.10;;;;;;2086053;28;19917;-91
2022/04/26 04:30:25;;;;;;;;;;;8.20;83.10;;;;;;2087062;28;19917;-91
2022/04/26 04:31:26;;;;;;;;;;;8.20;83.40;;;;;;2105449;28;19999;-91
2022/04/26 04:32:26;;;;;;;;;;;8.20;83.30;;;;;;2089870;28;19918;-89
2022/04/26 04:33:27;;;;;;;;;;;8.20;83.10;;;;;;2096090;28;19917;-91
2022/04/26 04:34:27;;;;;;;;;;;8.20;83.30;;;;;;2097442;28;19913;-91
2022/04/26 04:35:28;;;;;;;;;;;8.20;83.10;;;;;;2106230;28;19962;-91
2022/04/26 04:36:29;;;;;;;;;;;8.20;83.30;;;;;;2097967;28;19944;-91
2022/04/26 04:37:29;;;;;;;;;;;8.20;83.40;;;;;;2082370;28;19921;-91
2022/04/26 04:38:30;;;;;;;;;;;8.20;83.50;;;;;;2097480;28;19913;-91
2022/04/26 04:39:30;;;;;;;;;;;8.20;83.40;;;;;;2091806;28;19909;-90
2022/04/26 04:40:31;;;;;;;;;;;8.20;83.40;;;;;;2098182;28;19925;-92
2022/04/26 04:41:36;;;;;;;;;;;8.20;83.90;;;;;;2092235;28;20311;-91
2022/04/26 04:42:36;;;;;;;;;;;8.20;83.80;;;;;;2089403;28;20074;-90
2022/04/26 04:43:37;;;;;;;;;;;8.20;83.60;;;;;;2092183;28;19916;-90
2022/04/26 04:44:37;;;;;;;;;;;8.20;83.90;;;;;;2081309;28;20371;-90
2022/04/26 04:45:38;;;;;;;;;;;8.20;83.80;;;;;;2097787;28;19924;-90
2022/04/26 04:46:39;;;;;;;;;;;8.20;83.60;;;;;;2092536;28;20266;-91
2022/04/26 04:47:39;;;;;;;;;;;8.20;84.10;;;;;;2077062;28;19974;-92
2022/04/26 04:48:40;;;;;;;;;;;8.20;83.90;;;;;;2083093;28;19909;-91
2022/04/26 04:49:40;;;;;;;;;;;8.20;83.70;;;;;;2098710;28;20323;-91
2022/04/26 04:50:41;;;;;;;;;;;8.20;83.70;;;;;;2099892;28;19931;-90
2022/04/26 04:51:42;;;;;;;;;;;8.20;83.80;;;;;;2100635;28;20388;-90
2022/04/26 04:52:42;;;;;;;;;;;8.20;83.70;;;;;;2099291;28;20015;-91
2022/04/26 04:53:43;;;;;;;;;;;8.20;83.70;;;;;;2098457;28;20072;-93
2022/04/26 04:54:43;;;;;;;;;;;8.20;83.60;;;;;;2088705;28;19975;-91
2022/04/26 04:55:44;;;;;;;;;;;8.20;83.80;;;;;;2085691;28;19917;-91
2022/04/26 04:56:44;;;;;;;;;;;8.20;83.90;;;;;;2101297;28;19912;-92
2022/04/26 04:57:45;;;;;;;;;;;8.20;83.90;;;;;;2097897;28;19913;-91
2022/04/26 04:58:46;;;;;;;;;;;8.20;83.70;;;;;;2096933;28;19956;-91
2022/04/26 04:59:47;;;;;;;;;;;8.20;83.90;;;;;;2095243;28;19908;-91
2022/04/26 05:00:47;;;;;;;;;;;8.20;84.30;;;;;;2086965;28;19917;-90
2022/04/26 05:01:48;;;;;;;;;;;8.30;83.80;;;;;;2096906;28;19963;-91
2022/04/26 05:02:48;;;;;;;;;;;8.30;83.70;;;;;;2094522;28;19945;-91
2022/04/26 05:03:49;;;;;;;;;;;8.30;83.60;;;;;;2096132;28;20312;-90
2022/04/26 05:04:50;;;;;;;;;;;8.30;83.60;;;;;;2090626;28;19947;-91
2022/04/26 05:05:50;;;;;;;;;;;8.30;83.60;;;;;;2085972;28;19932;-92
2022/04/26 05:06:51;;;;;;;;;;;8.30;83.70;;;;;;2082529;28;19936;-91
2022/04/26 05:07:52;;;;;;;;;;;8.30;83.60;;;;;;2080960;28;19953;-90
2022/04/26 05:08:53;;;;;;;;;;;8.30;83.50;;;;;;2083696;28;19925;-91
2022/04/26 05:09:53;;;;;;;;;;;8.40;83.50;;;;;;2087527;28;21247;-90
2022/04/26 05:10:54;;;;;;;;;;;8.40;83.40;;;;;;2082147;28;19917;-91
2022/04/26 05:11:54;;;;;;;;;;;8.40;83.40;;;;;;2091212;28;20018;-91
2022/04/26 05:12:55;;;;;;;;;;;8.40;83.60;;;;;;2091418;28;19974;-90
2022/04/26 05:13:56;;;;;;;;;;;8.40;83.70;;;;;;2073194;28;19921;-91
2022/04/26 05:14:56;;;;;;;;;;;8.40;83.50;;;;;;2077773;28;20008;-90
2022/04/26 05:15:57;;;;;;;;;;;8.40;83.50;;;;;;2087402;28;19928;-91
2022/04/26 05:16:57;;;;;;;;;;;8.40;83.70;;;;;;2088444;28;19921;-90
2022/04/26 05:17:58;;;;;;;;;;;8.40;83.60;;;;;;2088634;28;19923;-91
2022/04/26 05:18:59;;;;;;;;;;;8.50;83.70;;;;;;2082940;28;19953;-91
2022/04/26 05:20:00;;;;;;;;;;;8.50;83.60;;;;;;2082408;28;20359;-91
2022/04/26 05:21:01;;;;;;;;;;;8.50;83.60;;;;;;2073589;28;19918;-91
2022/04/26 05:22:06;;;;;;;;;;;8.50;83.50;;;;;;2079325;28;20428;-92
2022/04/26 05:25:45;;;;;;;;;;;8.50;83.50;;;;;;2086992;28;20410;-91
2022/04/26 05:26:46;;;;;;;;;;;8.50;83.30;;;;;;2093173;28;19917;-91
2022/04/26 05:27:46;;;;;;;;;;;8.60;83.70;;;;;;2091018;28;19917;-91
2022/04/26 05:28:47;;;;;;;;;;;8.60;83.50;;;;;;2082605;28;20007;-90
2022/04/26 05:29:48;;;;;;;;;;;8.60;83.70;;;;;;2083023;28;19913;-90
2022/04/26 05:30:50;;;;;;;;;;;8.60;83.50;;;;;;2084652;28;19959;-91
2022/04/26 05:31:51;;;;;;;;;;;8.60;83.50;;;;;;2090337;28;20005;-91
2022/04/26 05:32:51;;;;;;;;;;;8.60;83.70;;;;;;2088397;28;19939;-91
2022/04/26 05:33:52;;;;;;;;;;;8.60;84.10;;;;;;2081014;28;19949;-91
2022/04/26 05:34:59;;;;;;;;;;;8.60;83.80;;;;;;2079529;28;20361;-90
2022/04/26 05:35:59;;;;;;;;;;;8.60;83.90;;;;;;2083760;28;19917;-91
2022/04/26 05:37:00;;;;;;;;;;;8.60;84.00;;;;;;2081852;28;19971;-91
2022/04/26 05:38:01;;;;;;;;;;;8.60;83.90;;;;;;2089519;28;19942;-92
2022/04/26 05:39:01;;;;;;;;;;;8.60;84.10;;;;;;2097790;28;19924;-91
2022/04/26 05:40:02;;;;;;;;;;;8.60;83.80;;;;;;2078088;28;20309;-91
2022/04/26 05:41:03;;;;;;;;;;;8.60;83.80;;;;;;2096224;28;19933;-90
2022/04/26 05:42:03;;;;;;;;;;;8.70;84.10;;;;;;2098789;28;19923;-91
2022/04/26 05:43:04;;;;;;;;;;;8.60;83.90;;;;;;2095814;28;19920;-91
2022/04/26 05:44:04;;;;;;;;;;;8.70;83.80;;;;;;2083097;28;19949;-91
2022/04/26 05:45:05;;;;;;;;;;;8.70;83.90;;;;;;2082583;28;20058;-91
2022/04/26 05:46:09;;;;;;;;;;;8.70;83.90;;;;;;2090666;28;19968;-90
2022/04/26 05:47:10;;;;;;;;;;;8.70;83.80;;;;;;2090813;28;20416;-92
2022/04/26 05:48:11;;;;;;;;;;;8.70;83.70;;;;;;2091106;28;19913;-91
2022/04/26 05:49:11;;;;;;;;;;;8.70;83.70;;;;;;2090677;28;19912;-91
2022/04/26 05:50:12;;;;;;;;;;;8.70;83.60;;;;;;2082891;28;19921;-91
2022/04/26 05:51:13;;;;;;;;;;;8.70;83.50;;;;;;2082922;28;19939;-91
2022/04/26 05:52:13;;;;;;;;;;;8.70;83.60;;;;;;2073277;28;19917;-91
2022/04/26 05:53:14;;;;;;;;;;;8.80;83.80;;;;;;2081095;28;19959;-91
2022/04/26 05:54:14;;;;;;;;;;;8.70;83.90;;;;;;2080480;28;19925;-91
2022/04/26 05:55:15;;;;;;;;;;;8.80;83.90;;;;;;2075825;28;19929;-91
2022/04/26 05:56:15;;;;;;;;;;;8.80;84.20;;;;;;2086081;28;21507;-91
2022/04/26 05:57:16;;;;;;;;;;;8.80;83.90;;;;;;2085894;28;19921;-91
2022/04/26 05:58:17;;;;;;;;;;;8.80;83.70;;;;;;2090552;28;19940;-90
2022/04/26 05:59:18;;;;;;;;;;;8.80;83.80;;;;;;2089751;28;19919;-91
2022/04/26 06:00:18;;;;;;;;;;;8.80;83.70;;;;;;2078336;28;19921;-91
2022/04/26 06:01:19;;;;;;;;;;;8.80;83.50;;;;;;2089129;28;19964;-91
2022/04/26 06:02:20;;;;;;;;;;;8.80;83.50;;;;;;2098821;28;20015;-91
2022/04/26 06:03:21;;;;;;;;;;;8.90;83.50;;;;;;2081272;28;19952;-91
2022/04/26 06:04:23;;;;;;;;;;;8.90;83.70;;;;;;2085464;28;19917;-91
2022/04/26 06:05:23;;;;;;;;;;;8.90;83.60;;;;;;2084294;28;19928;-90
2022/04/26 06:06:25;;;;;;;;;;;8.90;83.50;;;;;;2085642;28;19944;-90
2022/04/26 06:07:27;;;;;;;;;;;9.00;83.60;;;;;;2087042;28;19918;-91
2022/04/26 06:08:28;;;;;;;;;;;8.90;83.60;;;;;;2082196;28;19917;-91
2022/04/26 06:09:28;;;;;;;;;;;9.00;83.40;;;;;;2086410;28;19925;-89
2022/04/26 06:10:29;;;;;;;;;;;9.00;83.40;;;;;;2084323;28;19929;-91
2022/04/26 06:11:30;;;;;;;;;;;9.00;83.50;;;;;;2084176;28;19924;-91
2022/04/26 06:12:31;;;;;;;;;;;9.00;83.30;;;;;;2078752;28;20278;-91
2022/04/26 06:13:31;;;;;;;;;;;9.10;83.40;;;;;;2075924;28;19936;-91
2022/04/26 06:14:32;;;;;;;;;;;9.10;83.20;;;;;;2086162;28;19924;-91
2022/04/26 06:15:32;;;;;;;;;;;9.20;83.30;;;;;;2077524;28;19921;-91
2022/04/26 06:16:33;;;;;;;;;;;9.20;83.20;;;;;;2088812;28;20452;-91
2022/04/26 06:17:34;;;;;;;;;;;9.30;83.30;;;;;;2092178;28;19995;-91
2022/04/26 06:18:34;;;;;;;;;;;9.30;83.20;;;;;;2091017;28;19920;-90
2022/04/26 06:19:35;;;;;;;;;;;9.30;83.10;;;;;;2091718;28;19920;-91
2022/04/26 06:20:36;;;;;;;;;;;9.30;83.00;;;;;;2091896;28;20015;-91
2022/04/26 06:21:36;;;;;;;;;;;9.40;83.60;;;;;;2083187;28;20409;-91
2022/04/26 06:22:37;;;;;;;;;;;9.40;83.20;;;;;;2074784;28;19921;-90
2022/04/26 06:23:38;;;;;;;;;;;9.40;82.90;;;;;;2086544;28;19968;-90
2022/04/26 06:24:39;;;;;;;;;;;9.40;83.00;;;;;;2077729;28;20452;-90
2022/04/26 06:25:39;;;;;;;;;;;9.40;82.90;;;;;;2084224;28;19978;-92
2022/04/26 06:26:40;;;;;;;;;;;9.50;82.70;;;;;;2089482;28;19974;-91
2022/04/26 06:27:41;;;;;;;;;;;9.50;82.70;;;;;;2088236;28;19928;-91
2022/04/26 06:28:41;;;;;;;;;;;9.50;82.60;;;;;;2095861;28;19924;-91
2022/04/26 06:29:43;;;;;;;;;;;9.60;82.60;;;;;;2105741;28;19958;-91
2022/04/26 06:30:43;;;;;;;;;;;9.60;82.50;;;;;;2079919;28;19921;-90
2022/04/26 06:31:44;;;;;;;;;;;9.60;82.50;;;;;;2075598;28;19922;-90
2022/04/26 06:32:45;;;;;;;;;;;9.70;82.60;;;;;;2089048;28;19949;-91
2022/04/26 06:33:45;;;;;;;;;;;9.70;82.60;;;;;;2089503;28;19913;-91
2022/04/26 06:34:46;;;;;;;;;;;9.70;82.40;;;;;;2072465;28;19964;-90
2022/04/26 06:35:46;;;;;;;;;;;9.80;82.30;;;;;;2090078;28;19959;-90
2022/04/26 06:36:47;;;;;;;;;;;9.80;82.30;;;;;;2093810;28;19944;-90
2022/04/26 06:37:47;;;;;;;;;;;9.90;82.30;;;;;;2074113;28;19914;-90
2022/04/26 06:38:48;;;;;;;;;;;9.90;82.10;;;;;;2097498;28;19917;-90
2022/04/26 06:39:50;;;;;;;;;;;9.90;82.00;;;;;;2097728;28;19916;-90
2022/04/26 06:40:51;;;;;;;;;;;9.90;82.10;;;;;;2090882;28;19923;-90
2022/04/26 06:41:52;;;;;;;;;;;9.90;81.90;;;;;;2081404;28;20008;-90
2022/04/26 06:42:53;;;;;;;;;;;10.00;82.00;;;;;;2089861;28;20023;-90
2022/04/26 06:43:53;;;;;;;;;;;10.00;81.90;;;;;;2082123;28;19973;-91
2022/04/26 06:44:54;;;;;;;;;;;10.00;82.00;;;;;;2098568;28;19912;-91
2022/04/26 06:45:54;;;;;;;;;;;10.00;82.00;;;;;;2089243;28;19933;-91
2022/04/26 06:46:55;;;;;;;;;;;10.00;81.90;;;;;;2082303;28;20392;-91
2022/04/26 06:47:56;;;;;;;;;;;10.00;82.00;;;;;;2086812;28;19921;-90
2022/04/26 06:49:00;;;;;;;;;;;10.00;82.00;;;;;;2081120;28;19918;-91
2022/04/26 06:50:00;;;;;;;;;;;10.00;82.10;;;;;;2081774;28;20051;-91
2022/04/26 06:51:01;;;;;;;;;;;10.00;82.10;;;;;;2079685;28;19987;-91
2022/04/26 06:52:02;;;;;;;;;;;10.00;82.00;;;;;;2072312;28;19924;-89
2022/04/26 06:53:03;;;;;;;;;;;10.00;82.10;;;;;;2080892;28;20003;-90
2022/04/26 06:54:04;;;;;;;;;;;10.00;82.00;;;;;;2081626;28;20270;-91
2022/04/26 06:55:05;;;;;;;;;;;10.00;82.00;;;;;;2090573;28;19959;-91
2022/04/26 06:56:05;;;;;;;;;;;10.00;81.90;;;;;;2097823;28;20319;-91
2022/04/26 06:57:06;;;;;;;;;;;10.00;81.90;;;;;;2095568;28;19998;-90
2022/04/26 06:58:07;;;;;;;;;;;10.00;82.10;;;;;;2084654;28;20345;-90
2022/04/26 06:59:07;;;;;;;;;;;10.00;81.90;;;;;;2090838;28;19986;-90
2022/04/26 07:00:09;;;;;;;;;;;10.10;82.00;;;;;;2081572;28;20616;-91
2022/04/26 07:01:09;;;;;;;;;;;10.00;81.90;;;;;;2097166;28;19917;-90
2022/04/26 07:02:10;;;;;;;;;;;10.00;81.90;;;;;;2090097;28;19985;-90
2022/04/26 07:03:10;;;;;;;;;;;10.00;82.00;;;;;;2072472;28;20016;-89
2022/04/26 07:04:11;;;;;;;;;;;10.00;82.00;;;;;;2073597;28;19917;-90
2022/04/26 07:05:13;;;;;;;;;;;9.90;82.00;;;;;;2080836;28;19921;-91
2022/04/26 07:06:14;;;;;;;;;;;9.90;82.10;;;;;;2085321;28;19925;-90
2022/04/26 07:07:15;;;;;;;;;;;9.90;82.10;;;;;;2089838;28;19917;-91
2022/04/26 07:08:15;;;;;;;;;;;9.90;82.10;;;;;;2087815;28;19919;-91
2022/04/26 07:09:16;;;;;;;;;;;9.90;82.20;;;;;;2089661;28;20010;-90
2022/04/26 07:10:17;;;;;;;;;;;9.90;82.30;;;;;;2088661;28;19925;-91
2022/04/26 07:11:17;;;;;;;;;;;9.80;82.20;;;;;;2079295;28;19963;-90
2022/04/26 07:12:18;;;;;;;;;;;9.80;82.20;;;;;;2089407;28;20422;-90
2022/04/26 07:13:20;;;;;;;;;;;9.90;82.20;;;;;;2082330;28;19963;-90
2022/04/26 07:14:20;;;;;;;;;;;9.90;82.30;;;;;;2094893;28;19920;-91
2022/04/26 07:15:21;;;;;;;;;;;9.90;82.30;;;;;;2085966;28;19948;-91
2022/04/26 07:16:21;;;;;;;;;;;9.80;82.10;;;;;;2087301;28;19963;-89
2022/04/26 07:17:22;;;;;;;;;;;9.80;82.90;;;;;;2088257;28;19916;-91
2022/04/26 07:18:23;;;;;;;;;;;9.80;82.30;;;;;;2073758;28;20020;-91
2022/04/26 07:19:25;;;;;;;;;;;9.90;82.40;;;;;;2079223;28;19945;-90
2022/04/26 07:20:28;;;;;;;;;;;9.90;82.40;;;;;;2081465;28;19917;-91
2022/04/26 07:21:28;;;;;;;;;;;9.80;82.30;;;;;;2098988;28;19919;-90
2022/04/26 07:22:29;;;;;;;;;;;9.80;82.30;;;;;;2082771;28;19995;-91
2022/04/26 07:23:30;;;;;;;;;;;9.90;82.30;;;;;;2084030;28;19914;-91
2022/04/26 07:24:31;;;;;;;;;;;9.90;82.20;;;;;;2089967;28;20400;-90
2022/04/26 07:25:31;;;;;;;;;;;9.90;82.30;;;;;;2085604;28;19924;-91
2022/04/26 07:26:32;;;;;;;;;;;9.90;82.30;;;;;;2090319;28;19913;-90
2022/04/26 07:27:33;;;;;;;;;;;9.90;82.20;;;;;;2072883;28;19961;-91
2022/04/26 07:28:33;;;;;;;;;;;9.90;82.10;;;;;;2081457;28;19917;-91
2022/04/26 07:29:34;;;;;;;;;;;9.90;82.00;;;;;;2085084;28;19913;-90
2022/04/26 07:30:35;;;;;;;;;;;9.90;82.00;;;;;;2097609;28;20007;-90
2022/04/26 07:31:36;;;;;;;;;;;9.90;82.00;;;;;;2089574;28;20435;-92
2022/04/26 07:35:15;;;;;;;;;;;9.90;81.90;;;;;;2088708;28;20265;-90
2022/04/26 07:36:15;;;;;;;;;;;9.90;81.90;;;;;;2086479;28;19921;-91
2022/04/26 07:37:20;;;;;;;;;;;9.90;82.00;;;;;;2086892;28;20370;-91
2022/04/26 07:38:20;;;;;;;;;;;9.90;82.00;;;;;;2074199;28;19914;-90
2022/04/26 07:39:21;;;;;;;;;;;9.90;81.90;;;;;;2081896;28;19917;-91
2022/04/26 07:40:22;;;;;;;;;;;10.00;82.00;;;;;;2088682;28;19917;-91
2022/04/26 07:41:23;;;;;;;;;;;10.00;82.00;;;;;;2083774;28;19920;-90
2022/04/26 07:42:23;;;;;;;;;;;10.00;81.90;;;;;;2095511;28;19959;-91
2022/04/26 07:43:24;;;;;;;;;;;9.90;81.90;;;;;;2097692;28;20003;-91
2022/04/26 07:44:24;;;;;;;;;;;9.90;81.90;;;;;;2090232;28;19913;-91
2022/04/26 07:45:25;;;;;;;;;;;9.90;81.90;;;;;;2079073;28;19924;-91
2022/04/26 07:46:25;;;;;;;;;;;9.90;82.00;;;;;;2079912;28;20409;-89
2022/04/26 07:47:26;;;;;;;;;;;9.90;82.00;;;;;;2098067;28;19917;-91
2022/04/26 07:48:27;;;;;;;;;;;9.90;82.10;;;;;;2100732;28;19920;-91
2022/04/26 07:49:28;;;;;;;;;;;9.90;82.00;;;;;;2090268;28;19909;-91
2022/04/26 07:50:28;;;;;;;;;;;9.80;82.10;;;;;;2090032;28;20028;-90
2022/04/26 07:51:30;;;;;;;;;;;9.80;82.10;;;;;;2098502;28;19909;-91
2022/04/26 07:52:31;;;;;;;;;;;9.80;82.40;;;;;;2097528;28;19946;-91
2022/04/26 07:53:32;;;;;;;;;;;9.80;82.30;;;;;;2090289;28;19917;-90
2022/04/26 07:54:32;;;;;;;;;;;9.80;82.20;;;;;;2096816;28;19919;-90
2022/04/26 07:55:36;;;;;;;;;;;9.80;82.30;;;;;;2078792;28;20374;-90
2022/04/26 07:56:36;;;;;;;;;;;9.80;82.30;;;;;;2082338;28;19924;-91
2022/04/26 07:57:39;;;;;;;;;;;9.70;82.80;;;;;;2080385;28;19913;-91
2022/04/26 07:58:39;;;;;;;;;;;9.70;82.30;;;;;;2081045;28;19921;-90
2022/04/26 07:59:40;;;;;;;;;;;9.70;82.30;;;;;;2082980;28;20381;-91
2022/04/26 08:00:41;;;;;;;;;;;9.80;82.30;;;;;;2097221;28;19916;-91
2022/04/26 08:01:41;;;;;;;;;;;9.70;82.40;;;;;;2091018;28;19968;-91
2022/04/26 08:02:42;;;;;;;;;;;9.80;82.30;;;;;;2096155;28;19912;-90
2022/04/26 08:03:43;;;;;;;;;;;9.70;82.30;;;;;;2090488;28;19917;-90
2022/04/26 08:04:43;;;;;;;;;;;9.80;82.30;;;;;;2099676;28;20027;-90
2022/04/26 08:05:44;;;;;;;;;;;9.80;82.30;;;;;;2086453;28;19964;-90
2022/04/26 08:06:44;;;;;;;;;;;9.80;82.10;;;;;;2089954;28;19959;-91
2022/04/26 08:07:45;;;;;;;;;;;9.80;82.10;;;;;;2089309;28;20349;-90
2022/04/26 08:08:46;;;;;;;;;;;9.80;82.10;;;;;;2097822;28;19916;-90
2022/04/26 08:09:47;;;;;;;;;;;9.80;82.00;;;;;;2102100;28;19915;-89
2022/04/26 08:10:47;;;;;;;;;;;9.80;81.90;;;;;;2078946;28;20039;-90
2022/04/26 08:11:49;;;;;;;;;;;9.90;82.00;;;;;;2072419;28;19917;-90
2022/04/26 08:12:50;;;;;;;;;;;9.90;81.90;;;;;;2085541;28;19913;-90
2022/04/26 08:13:50;;;;;;;;;;;9.90;81.80;;;;;;2083620;28;19918;-91
2022/04/26 08:14:51;;;;;;;;;;;9.90;81.70;;;;;;2073907;28;20382;-91
2022/04/26 08:15:51;;;;;;;;;;;9.90;81.70;;;;;;2080054;28;19924;-91
2022/04/26 08:16:52;;;;;;;;;;;10.00;81.70;;;;;;2089874;28;19917;-90
2022/04/26 08:17:52;;;;;;;;;;;10.00;81.60;;;;;;2070165;28;19913;-90
2022/04/26 08:18:53;;;;;;;;;;;10.10;81.60;;;;;;2085880;28;19971;-90
2022/04/26 08:19:53;;;;;;;;;;;10.10;81.50;;;;;;2082114;28;19917;-91
2022/04/26 08:20:54;;;;;;;;;;;10.10;81.40;;;;;;2069323;28;19918;-90
2022/04/26 08:21:55;;;;;;;;;;;10.20;81.40;;;;;;2091831;28;20432;-90
2022/04/26 08:22:55;;;;;;;;;;;10.20;81.30;;;;;;2081790;28;19913;-90
2022/04/26 08:27:54;;;;;;;;;;;10.40;80.90;;;;;;2102673;28;20396;-91
2022/04/26 08:28:54;;;;;;;;;;;10.50;80.70;;;;;;2084866;28;19920;-91
2022/04/26 08:29:56;;;;;;;;;;;10.50;80.50;;;;;;2070745;28;19927;-91
2022/04/26 08:30:56;;;;;;;;;;;10.60;80.40;;;;;;2077692;28;19925;-90
2022/04/26 08:31:57;;;;;;;;;;;10.70;80.20;;;;;;2080867;28;20459;-90
2022/04/26 08:32:57;;;;;;;;;;;10.90;79.80;;;;;;2094152;28;19917;-91
2022/04/26 08:33:58;;;;;;;;;;;10.90;79.70;;;;;;2083588;28;19917;-90
2022/04/26 08:34:59;;;;;;;;;;;11.10;79.40;;;;;;2072039;28;20006;-91
2022/04/26 08:36:00;;;;;;;;;;;11.20;78.90;;;;;;2072840;28;19968;-91
2022/04/26 08:37:00;;;;;;;;;;;11.20;78.60;;;;;;2089534;28;19919;-90
2022/04/26 08:38:01;;;;;;;;;;;11.30;78.30;;;;;;2090022;28;20365;-91
2022/04/26 08:39:02;;;;;;;;;;;11.40;78.20;;;;;;2095970;28;19917;-91
2022/04/26 08:40:05;;;;;;;;;;;11.50;78.20;;;;;;2093585;28;19959;-91
2022/04/26 08:41:06;;;;;;;;;;;11.60;78.00;;;;;;2089602;28;20327;-92
2022/04/26 08:42:06;;;;;;;;;;;11.70;77.80;;;;;;2078699;28;20161;-91
2022/04/26 08:43:07;;;;;;;;;;;11.80;77.60;;;;;;2093027;28;19917;-90
2022/04/26 08:44:10;;;;;;;;;;;11.90;77.50;;;;;;2085174;28;19959;-91
2022/04/26 08:45:12;;;;;;;;;;;11.90;76.90;;;;;;2083900;28;19927;-90
2022/04/26 08:46:13;;;;;;;;;;;12.00;76.80;;;;;;2097364;28;20407;-91
2022/04/26 08:51:13;;;;;;;;;;;12.40;75.20;;;;;;2090533;28;19948;-91
2022/04/26 08:52:15;;;;;;;;;;;12.50;75.60;;;;;;2076247;28;19921;-91
2022/04/26 08:53:19;;;;;;;;;;;12.50;74.50;;;;;;2082499;28;19914;-92
2022/04/26 08:54:23;;;;;;;;;;;12.60;75.10;;;;;;2082720;28;19913;-92
2022/04/26 08:55:23;;;;;;;;;;;12.60;75.20;;;;;;2083597;28;20023;-91
2022/04/26 08:56:24;;;;;;;;;;;12.70;74.30;;;;;;2100081;28;19932;-92
2022/04/26 08:57:24;;;;;;;;;;;12.70;74.60;;;;;;2088686;28;19952;-91
2022/04/26 08:58:27;;;;;;;;;;;12.70;74.60;;;;;;2083093;28;19956;-92
2022/04/26 08:59:28;;;;;;;;;;;12.80;74.50;;;;;;2082441;28;19914;-91
2022/04/26 09:00:28;;;;;;;;;;;12.80;74.30;;;;;;2096078;28;19948;-91
2022/04/26 09:01:29;;;;;;;;;;;12.90;74.20;;;;;;2098603;28;19992;-92
2022/04/26 09:02:29;;;;;;;;;;;12.90;73.50;;;;;;2082913;28;19928;-91
2022/04/26 09:03:31;;;;;;;;;;;12.90;74.00;;;;;;2085087;28;19917;-91
2022/04/26 09:04:32;;;;;;;;;;;12.90;73.20;;;;;;2090581;28;19913;-92
2022/04/26 09:05:33;;;;;;;;;;;13.00;73.30;;;;;;2091061;28;19946;-92
2022/04/26 09:06:36;;;;;;;;;;;13.00;73.30;;;;;;2091127;28;19976;-90
2022/04/26 09:07:37;;;;;;;;;;;13.00;73.10;;;;;;2091334;28;19913;-92
2022/04/26 09:08:38;;;;;;;;;;;13.10;73.20;;;;;;2089653;28;19999;-92
2022/04/26 09:09:39;;;;;;;;;;;13.10;73.00;;;;;;2089296;28;19912;-92
2022/04/26 09:10:46;;;;;;;;;;;13.10;73.00;;;;;;2081572;28;20289;-91
2022/04/26 09:11:46;;;;;;;;;;;13.20;72.90;;;;;;2076959;28;20406;-92
2022/04/26 09:13:01;;;;;;;;;;;13.20;72.80;;;;;;2074666;28;19921;-93
2022/04/26 09:14:03;;;;;;;;;;;13.30;72.50;;;;;;2093359;28;20005;-91
2022/04/26 09:15:14;;;;;;;;;;;13.30;72.10;;;;;;2098957;28;19979;-92
2022/04/26 09:16:15;;;;;;;;;;;13.40;71.70;;;;;;2089466;28;20389;-91
2022/04/26 09:17:16;;;;;;;;;;;13.40;71.60;;;;;;2090813;28;19916;-92
2022/04/26 09:18:21;;;;;;;;;;;13.40;70.80;;;;;;2082462;28;20023;-91
2022/04/26 09:19:21;;;;;;;;;;;13.40;71.00;;;;;;2081954;28;19963;-92
2022/04/26 09:20:32;;;;;;;;;;;13.40;70.80;;;;;;2090282;28;19924;-90
2022/04/26 09:21:34;;;;;;;;;;;13.40;70.50;;;;;;2081666;28;19951;-91
2022/04/26 09:22:35;;;;;;;;;;;13.50;70.50;;;;;;2083230;28;19948;-91
2022/04/26 09:23:38;;;;;;;;;;;13.60;69.90;;;;;;2082459;28;19917;-91
2022/04/26 09:24:54;;;;;;;;;;;13.50;70.10;;;;;;2084063;28;19951;-91
2022/04/26 09:25:58;;;;;;;;;;;13.60;69.30;;;;;;2093032;28;19917;-92
2022/04/26 09:26:59;;;;;;;;;;;13.60;70.10;;;;;;2083417;28;19913;-92
2022/04/26 09:28:00;;;;;;;;;;;13.60;70.00;;;;;;2082593;28;20004;-92
2022/04/26 09:29:01;;;;;;;;;;;13.70;70.30;;;;;;2085892;28;19924;-92
2022/04/26 09:30:08;;;;;;;;;;;13.70;70.00;;;;;;2088585;28;19963;-91
2022/04/26 09:31:16;;;;;;;;;;;13.80;69.90;;;;;;2092775;28;19917;-92
2022/04/26 09:32:16;;;;;;;;;;;13.90;70.10;;;;;;2089552;28;19913;-92
2022/04/26 09:33:29;;;;;;;;;;;13.90;68.90;;;;;;2084132;28;19992;-92
2022/04/26 09:34:35;;;;;;;;;;;14.00;69.10;;;;;;2079562;28;19910;-93
2022/04/26 09:35:36;;;;;;;;;;;14.00;68.30;;;;;;2090799;28;19920;-92
2022/04/26 09:36:44;;;;;;;;;;;14.00;67.60;;;;;;2090266;28;20039;-92
2022/04/26 09:37:44;;;;;;;;;;;14.00;67.70;;;;;;2096849;28;19916;-92
2022/04/26 09:38:57;;;;;;;;;;;14.00;68.20;;;;;;2098541;28;20506;-92
2022/04/26 09:40:02;;;;;;;;;;;14.00;67.10;;;;;;2085238;28;20439;-92
2022/04/26 09:41:09;;;;;;;;;;;14.00;67.00;;;;;;2084039;28;20266;-91
2022/04/26 09:42:10;;;;;;;;;;;13.90;67.10;;;;;;2103350;28;19987;-91
2022/04/26 09:43:13;;;;;;;;;;;13.90;66.90;;;;;;2089857;28;19919;-91
2022/04/26 09:44:14;;;;;;;;;;;13.90;66.90;;;;;;2079645;28;19922;-91
2022/04/26 09:45:16;;;;;;;;;;;13.90;67.20;;;;;;2083337;28;20024;-91
2022/04/26 09:46:16;;;;;;;;;;;13.80;66.60;;;;;;2094516;28;20466;-91
2022/04/26 09:47:34;;;;;;;;;;;13.90;66.70;;;;;;2088344;28;19918;-91
2022/04/26 09:48:36;;;;;;;;;;;13.80;66.40;;;;;;2085283;28;19967;-91
2022/04/26 09:49:37;;;;;;;;;;;13.90;66.40;;;;;;2092400;28;19920;-91
2022/04/26 09:50:38;;;;;;;;;;;13.90;67.20;;;;;;2093022;28;19917;-91